createdAt,value
2023-01-15T00:01:06.719Z,14.52
2023-01-15T00:03:33.417Z,14.15
2023-01-15T00:06:03.587Z,13.63
2023-01-15T00:08:30.268Z,13.95
2023-01-15T00:10:56.998Z,13.23
2023-01-15T00:13:23.624Z,13.35
2023-01-15T00:15:50.177Z,12.88
2023-01-15T00:18:16.788Z,13.57
2023-01-15T00:20:43.428Z,13.93
2023-01-15T00:23:30.013Z,14.77
2023-01-15T00:26:15.716Z,14.73
2023-01-15T00:28:42.275Z,12.77
2023-01-15T00:31:08.945Z,12.25
2023-01-15T00:33:35.672Z,13.52
2023-01-15T00:36:02.326Z,12.80
2023-01-15T00:38:29.020Z,13.30
2023-01-15T00:40:55.603Z,14.43
2023-01-15T00:43:22.361Z,13.88
2023-01-15T00:45:49.044Z,13.57
2023-01-15T00:48:15.666Z,13.43
2023-01-15T00:50:42.291Z,13.82
2023-01-15T00:53:08.988Z,12.88
2023-01-15T00:55:35.899Z,13.73
2023-01-15T00:58:02.554Z,14.10
2023-01-15T01:00:29.296Z,13.18
2023-01-15T01:02:57.384Z,13.43
2023-01-15T01:05:24.279Z,12.25
2023-01-15T01:07:51.091Z,11.50
2023-01-15T01:10:17.781Z,11.07
2023-01-15T01:12:44.377Z,12.27
2023-01-15T01:15:11.231Z,11.43
2023-01-15T01:17:38.846Z,10.75
2023-01-15T01:20:06.347Z,11.50
2023-01-15T01:22:33.721Z,10.65
2023-01-15T01:25:00.371Z,11.15
2023-01-15T01:27:27.014Z,10.52
2023-01-15T01:29:53.737Z,11.77
2023-01-15T01:32:20.409Z,10.68
2023-01-15T01:34:47.471Z,11.85
2023-01-15T01:37:14.260Z,11.98
2023-01-15T01:39:41.332Z,11.88
2023-01-15T01:42:16.548Z,12.85
2023-01-15T01:44:43.769Z,12.60
2023-01-15T01:47:16.391Z,12.32
2023-01-15T01:49:44.365Z,11.45
2023-01-15T01:52:20.000Z,12.80
2023-01-15T01:54:49.370Z,13.02
2023-01-15T01:57:17.044Z,12.57
2023-01-15T01:59:44.103Z,12.95
2023-01-15T02:02:11.310Z,12.70
2023-01-15T02:04:38.828Z,14.35
2023-01-15T02:07:05.972Z,13.65
2023-01-15T02:09:32.711Z,14.35
2023-01-15T02:12:11.303Z,14.05
2023-01-15T02:14:42.434Z,14.32
2023-01-15T02:17:24.785Z,13.90
2023-01-15T02:20:19.172Z,14.38
2023-01-15T02:22:52.035Z,14.45
2023-01-15T02:25:36.479Z,14.38
2023-01-15T02:28:27.074Z,16.00
2023-01-15T02:31:03.188Z,15.55
2023-01-15T02:33:39.280Z,14.18
2023-01-15T02:36:08.852Z,14.35
2023-01-15T02:38:45.563Z,14.65
2023-01-15T02:41:17.718Z,14.75
2023-01-15T02:43:48.721Z,15.45
2023-01-15T02:46:18.182Z,14.65
2023-01-15T02:48:52.830Z,14.20
2023-01-15T02:51:25.699Z,15.05
2023-01-15T02:53:57.652Z,15.10
2023-01-15T02:56:27.694Z,15.60
2023-01-15T02:58:59.673Z,14.57
2023-01-15T03:01:34.708Z,13.65
2023-01-15T03:04:10.341Z,14.48
2023-01-15T03:07:00.627Z,14.13
2023-01-15T03:09:30.893Z,13.40
2023-01-15T03:12:30.063Z,12.35
2023-01-15T03:15:34.185Z,12.80
2023-01-15T03:18:02.821Z,12.45
2023-01-15T03:20:33.570Z,11.65
2023-01-15T03:23:10.035Z,11.45
2023-01-15T03:25:43.955Z,11.30
2023-01-15T03:28:12.156Z,11.45
2023-01-15T03:30:38.757Z,11.43
2023-01-15T03:33:05.668Z,11.02
2023-01-15T03:35:57.729Z,10.35
2023-01-15T03:38:28.548Z,10.93
2023-01-15T03:41:16.499Z,10.85
2023-01-15T03:43:46.262Z,9.30
2023-01-15T03:46:57.337Z,9.05
2023-01-15T03:49:38.999Z,9.75
2023-01-15T03:52:16.524Z,9.35
2023-01-15T03:54:55.283Z,10.82
2023-01-15T03:57:36.647Z,9.32
2023-01-15T04:00:40.965Z,9.55
2023-01-15T04:03:10.290Z,8.63
2023-01-15T04:05:38.692Z,8.43
2023-01-15T04:08:07.372Z,9.27
2023-01-15T04:10:33.986Z,9.05
2023-01-15T04:13:00.637Z,9.52
2023-01-15T04:15:27.693Z,9.85
2023-01-15T04:17:54.294Z,10.07
2023-01-15T04:20:20.847Z,9.80
2023-01-15T04:22:47.558Z,8.52
2023-01-15T04:25:14.316Z,8.32
2023-01-15T04:27:41.021Z,7.53
2023-01-15T04:30:08.420Z,7.80
2023-01-15T04:32:35.003Z,7.47
2023-01-15T04:35:01.737Z,7.30
2023-01-15T04:37:28.667Z,8.20
2023-01-15T04:39:55.290Z,8.20
2023-01-15T04:42:41.026Z,8.75
2023-01-15T04:45:08.230Z,8.02
2023-01-15T04:47:34.880Z,8.38
2023-01-15T04:50:01.566Z,7.20
2023-01-15T04:52:28.226Z,7.78
2023-01-15T04:54:55.930Z,7.45
2023-01-15T04:57:22.980Z,7.90
2023-01-15T04:59:49.572Z,7.30
2023-01-15T05:02:16.390Z,7.07
2023-01-15T05:04:43.050Z,7.32
2023-01-15T05:07:10.340Z,6.97
2023-01-15T05:09:36.896Z,8.43
2023-01-15T05:12:03.635Z,7.70
2023-01-15T05:14:30.514Z,8.80
2023-01-15T05:16:57.164Z,8.05
2023-01-15T05:19:23.796Z,9.25
2023-01-15T05:21:51.583Z,10.00
2023-01-15T05:24:18.315Z,10.48
2023-01-15T05:26:45.800Z,10.20
2023-01-15T05:29:13.518Z,7.22
2023-01-15T05:31:41.999Z,6.90
2023-01-15T05:34:10.557Z,6.88
2023-01-15T05:36:37.763Z,7.18
2023-01-15T05:39:04.689Z,7.15
2023-01-15T05:41:49.637Z,7.25
2023-01-15T05:44:28.220Z,8.68
2023-01-15T05:47:00.229Z,8.73
2023-01-15T05:49:28.507Z,9.38
2023-01-15T05:51:55.734Z,8.48
2023-01-15T05:54:26.113Z,7.45
2023-01-15T05:56:53.747Z,7.65
2023-01-15T05:59:23.118Z,6.90
2023-01-15T06:01:50.107Z,6.70
2023-01-15T06:04:21.512Z,6.45
2023-01-15T06:06:49.912Z,6.78
2023-01-15T06:09:16.946Z,6.82
2023-01-15T06:11:43.666Z,6.60
2023-01-15T06:14:11.941Z,6.88
2023-01-15T06:16:41.026Z,7.10
2023-01-15T06:19:09.414Z,8.05
2023-01-15T06:21:36.224Z,8.27
2023-01-15T06:24:04.134Z,8.57
2023-01-15T06:26:30.786Z,10.95
2023-01-15T06:28:57.532Z,12.48
2023-01-15T06:31:24.601Z,12.88
2023-01-15T06:33:51.314Z,13.48
2023-01-15T06:36:21.788Z,14.75
2023-01-15T06:38:48.776Z,13.57
2023-01-15T06:41:40.379Z,14.93
2023-01-15T06:44:29.749Z,14.75
2023-01-15T06:47:14.793Z,15.02
2023-01-15T06:49:41.405Z,15.55
2023-01-15T06:52:08.325Z,15.23
2023-01-15T06:54:35.302Z,15.85
2023-01-15T06:57:02.146Z,15.30
2023-01-15T06:59:29.059Z,13.65
2023-01-15T07:01:55.886Z,14.38
2023-01-15T07:04:22.549Z,13.68
2023-01-15T07:06:49.278Z,13.18
2023-01-15T07:09:16.008Z,12.05
2023-01-15T07:11:51.913Z,13.55
2023-01-15T07:14:20.527Z,13.77
2023-01-15T07:16:47.405Z,13.10
2023-01-15T07:19:14.339Z,13.98
2023-01-15T07:21:41.552Z,12.65
2023-01-15T07:24:08.849Z,13.23
2023-01-15T07:26:35.535Z,13.70
2023-01-15T07:29:02.440Z,14.52
2023-01-15T07:31:29.434Z,14.05
2023-01-15T07:33:57.207Z,14.40
2023-01-15T07:36:24.643Z,13.45
2023-01-15T07:38:51.661Z,16.95
2023-01-15T07:41:36.775Z,17.25
2023-01-15T07:44:21.954Z,15.55
2023-01-15T07:47:07.452Z,14.73
2023-01-15T07:49:46.220Z,12.68
2023-01-15T07:52:22.960Z,14.27
2023-01-15T07:54:50.717Z,8.15
2023-01-15T07:57:20.536Z,9.15
2023-01-15T07:59:47.517Z,10.00
2023-01-15T08:02:14.250Z,11.07
2023-01-15T08:04:41.319Z,13.32
2023-01-15T08:07:08.865Z,10.60
2023-01-15T08:09:36.286Z,14.18
2023-01-15T08:12:22.556Z,15.00
2023-01-15T08:15:07.721Z,16.40
2023-01-15T08:17:35.484Z,12.30
2023-01-15T08:20:05.175Z,14.98
2023-01-15T08:22:32.167Z,13.60
2023-01-15T08:24:58.841Z,15.40
2023-01-15T08:27:25.607Z,16.23
2023-01-15T08:29:53.110Z,18.02
2023-01-15T08:32:19.713Z,15.15
2023-01-15T08:34:46.374Z,15.15
2023-01-15T08:37:12.938Z,10.10
2023-01-15T08:39:39.578Z,12.20
2023-01-15T08:42:06.418Z,13.35
2023-01-15T08:44:33.183Z,15.10
2023-01-15T08:47:00.059Z,15.25
2023-01-15T08:49:26.959Z,14.57
2023-01-15T08:51:53.608Z,15.20
2023-01-15T08:54:22.508Z,16.05
2023-01-15T08:56:50.011Z,14.18
2023-01-15T08:59:17.092Z,12.30
2023-01-15T09:01:44.882Z,13.73
2023-01-15T09:04:16.301Z,12.52
2023-01-15T09:06:43.147Z,8.93
2023-01-15T09:09:09.931Z,5.65
2023-01-15T09:11:40.379Z,8.18
2023-01-15T09:14:59.692Z,8.40
2023-01-15T09:16:59.225Z,10.73
2023-01-15T09:19:25.915Z,9.27
2023-01-15T09:21:52.639Z,8.75
2023-01-15T09:24:19.234Z,9.57
2023-01-15T09:26:45.911Z,10.70
2023-01-15T09:29:12.719Z,9.35
2023-01-15T09:31:39.332Z,10.65
2023-01-15T09:34:06.158Z,9.60
2023-01-15T09:36:35.184Z,10.60
2023-01-15T09:39:04.445Z,10.45
2023-01-15T09:42:07.888Z,10.45
2023-01-15T09:44:43.650Z,9.85
2023-01-15T09:47:21.111Z,10.80
2023-01-15T09:49:58.118Z,10.15
2023-01-15T09:52:48.632Z,11.43
2023-01-15T09:55:22.600Z,12.77
2023-01-15T09:57:56.365Z,11.63
2023-01-15T10:00:25.139Z,12.35
2023-01-15T10:03:18.408Z,13.32
2023-01-15T10:05:53.925Z,13.80
2023-01-15T10:08:25.346Z,13.52
2023-01-15T10:10:59.662Z,14.73
2023-01-15T10:14:18.980Z,15.02
2023-01-15T10:16:46.111Z,14.27
2023-01-15T10:19:12.666Z,14.95
2023-01-15T10:22:06.527Z,14.13
2023-01-15T10:24:43.938Z,13.27
2023-01-15T10:27:20.179Z,13.43
2023-01-15T10:29:52.846Z,13.68
2023-01-15T10:32:29.574Z,12.18
2023-01-15T10:35:14.631Z,9.48
2023-01-15T10:37:50.697Z,10.05
2023-01-15T10:40:17.375Z,12.05
2023-01-15T10:43:02.923Z,10.80
2023-01-15T10:45:46.840Z,10.38
2023-01-15T10:48:32.329Z,8.48
2023-01-15T10:51:03.715Z,8.52
2023-01-15T10:53:40.787Z,9.40
2023-01-15T10:56:18.058Z,8.52
2023-01-15T10:59:14.625Z,8.60
2023-01-15T11:01:41.658Z,7.40
2023-01-15T11:04:13.617Z,8.52
2023-01-15T11:06:41.373Z,9.82
2023-01-15T11:09:19.866Z,9.10
2023-01-15T11:11:59.347Z,8.48
2023-01-15T11:14:59.464Z,7.95
2023-01-15T11:18:04.939Z,8.77
2023-01-15T11:20:45.191Z,11.65
2023-01-15T11:23:14.987Z,11.43
2023-01-15T11:25:54.083Z,11.20
2023-01-15T11:28:32.228Z,10.40
2023-01-15T11:30:59.499Z,9.07
2023-01-15T11:33:28.752Z,7.20
2023-01-15T11:35:58.797Z,6.45
2023-01-15T11:38:43.745Z,9.25
2023-01-15T11:41:50.564Z,7.93
2023-01-15T11:44:38.007Z,8.10
2023-01-15T11:47:29.605Z,7.38
2023-01-15T11:50:15.261Z,9.52
2023-01-15T11:52:46.670Z,7.80
2023-01-15T11:55:18.241Z,8.27
2023-01-15T11:57:45.759Z,9.48
2023-01-15T12:00:21.776Z,9.35
2023-01-15T12:02:51.082Z,9.65
2023-01-15T12:05:24.158Z,10.05
2023-01-15T12:07:54.591Z,5.10
2023-01-15T12:10:41.301Z,8.65
2023-01-15T12:13:07.962Z,7.60
2023-01-15T12:16:05.384Z,8.35
2023-01-15T12:19:05.765Z,8.40
2023-01-15T12:21:38.068Z,6.70
2023-01-15T12:24:30.179Z,7.55
2023-01-15T12:27:07.490Z,6.82
2023-01-15T12:30:02.724Z,6.45
2023-01-15T12:32:43.376Z,6.88
2023-01-15T12:35:25.406Z,6.68
2023-01-15T12:38:03.616Z,6.65
2023-01-15T12:40:52.246Z,7.47
2023-01-15T12:43:47.249Z,4.78
2023-01-15T12:46:23.240Z,5.50
2023-01-15T12:49:03.463Z,3.75
2023-01-15T12:51:45.803Z,6.45
2023-01-15T12:54:16.393Z,5.35
2023-01-15T12:57:09.904Z,4.70
2023-01-15T12:59:44.862Z,5.88
2023-01-15T13:02:27.753Z,5.38
2023-01-15T13:05:02.970Z,4.05
2023-01-15T13:07:35.988Z,5.20
2023-01-15T13:10:09.747Z,5.10
2023-01-15T13:12:36.375Z,4.75
2023-01-15T13:15:04.493Z,4.47
2023-01-15T13:17:31.054Z,3.70
2023-01-15T13:20:09.966Z,5.18
2023-01-15T13:22:52.535Z,5.03
2023-01-15T13:25:48.421Z,4.15
2023-01-15T13:28:34.405Z,3.70
2023-01-15T13:31:22.793Z,3.80
2023-01-15T13:33:55.543Z,4.78
2023-01-15T13:36:30.013Z,4.88
2023-01-15T13:39:00.912Z,5.35
2023-01-15T13:41:49.762Z,5.05
2023-01-15T13:44:19.984Z,6.00
2023-01-15T13:46:49.572Z,5.68
2023-01-15T13:49:26.667Z,5.97
2023-01-15T13:51:53.912Z,4.38
2023-01-15T13:54:23.966Z,5.80
2023-01-15T13:56:50.580Z,5.43
2023-01-15T13:59:44.218Z,5.22
2023-01-15T14:02:41.240Z,4.32
2023-01-15T14:05:30.884Z,5.63
2023-01-15T14:07:58.413Z,4.68
2023-01-15T14:10:27.539Z,4.43
2023-01-15T14:13:10.922Z,5.35
2023-01-15T14:16:19.061Z,4.35
2023-01-15T14:19:22.054Z,5.85
2023-01-15T14:22:16.521Z,6.10
2023-01-15T14:24:55.365Z,5.88
2023-01-15T14:27:54.544Z,5.78
2023-01-15T14:30:56.761Z,5.60
2023-01-15T14:34:01.259Z,4.47
2023-01-15T14:36:30.812Z,2.70
2023-01-15T14:39:01.839Z,4.15
2023-01-15T14:41:55.444Z,5.72
2023-01-15T14:44:34.013Z,4.55
2023-01-15T14:47:07.099Z,5.68
2023-01-15T14:50:02.686Z,6.03
2023-01-15T14:52:29.582Z,6.78
2023-01-15T14:54:58.678Z,6.10
2023-01-15T14:57:25.589Z,6.97
2023-01-15T15:00:00.772Z,7.00
2023-01-15T15:02:38.775Z,7.50
2023-01-15T15:05:11.038Z,7.60
2023-01-15T15:07:43.601Z,7.55
2023-01-15T15:10:19.247Z,6.22
2023-01-15T15:12:55.317Z,8.75
2023-01-15T15:15:45.082Z,8.63
2023-01-15T15:18:11.699Z,7.55
2023-01-15T15:20:59.869Z,9.10
2023-01-15T15:23:51.606Z,8.40
2023-01-15T15:26:31.234Z,9.25
2023-01-15T15:29:05.464Z,10.00
2023-01-15T15:31:37.943Z,9.80
2023-01-15T15:34:07.627Z,9.70
2023-01-15T15:36:39.522Z,9.63
2023-01-15T15:39:31.896Z,11.45
2023-01-15T15:42:18.303Z,10.50
2023-01-15T15:45:17.767Z,10.60
2023-01-15T15:48:03.136Z,10.55
2023-01-15T15:50:35.470Z,12.10
2023-01-15T15:53:04.715Z,11.90
2023-01-15T15:55:41.308Z,12.75
2023-01-15T15:58:12.321Z,13.95
2023-01-15T16:00:44.408Z,12.75
2023-01-15T16:03:21.795Z,12.13
2023-01-15T16:06:00.317Z,9.75
2023-01-15T16:08:28.732Z,13.93
2023-01-15T16:11:12.344Z,14.13
2023-01-15T16:13:42.968Z,14.93
2023-01-15T16:16:11.046Z,13.25
2023-01-15T16:18:44.360Z,13.95
2023-01-15T16:21:16.159Z,15.40
2023-01-15T16:23:46.297Z,13.32
2023-01-15T16:26:21.830Z,15.00
2023-01-15T16:28:55.114Z,13.18
2023-01-15T16:31:23.209Z,14.88
2023-01-15T16:33:58.336Z,14.52
2023-01-15T16:36:26.695Z,15.65
2023-01-15T16:38:54.295Z,15.10
2023-01-15T16:41:34.485Z,15.38
2023-01-15T16:44:05.001Z,17.75
2023-01-15T16:46:35.126Z,16.17
2023-01-15T16:49:22.455Z,16.13
2023-01-15T16:51:50.568Z,15.38
2023-01-15T16:54:41.659Z,16.92
2023-01-15T16:57:37.566Z,15.32
2023-01-15T17:00:07.225Z,15.98
2023-01-15T17:02:42.540Z,16.58
2023-01-15T17:05:23.414Z,16.60
2023-01-15T17:07:51.713Z,16.52
2023-01-15T17:10:29.113Z,15.60
2023-01-15T17:12:58.767Z,17.15
2023-01-15T17:15:25.563Z,16.63
2023-01-15T17:17:54.171Z,17.55
2023-01-15T17:20:27.148Z,16.60
2023-01-15T17:22:54.367Z,16.65
2023-01-15T17:25:33.771Z,15.00
2023-01-15T17:28:02.044Z,15.93
2023-01-15T17:30:33.567Z,17.45
2023-01-15T17:33:02.067Z,17.77
2023-01-15T17:35:37.321Z,18.02
2023-01-15T17:38:05.500Z,18.88
2023-01-15T17:40:32.895Z,19.17
2023-01-15T17:42:59.954Z,19.02
2023-01-15T17:45:28.898Z,16.48
2023-01-15T17:47:55.766Z,18.10
2023-01-15T17:50:23.045Z,18.58
2023-01-15T17:52:50.031Z,17.92
2023-01-15T17:55:38.339Z,18.23
2023-01-15T17:58:24.373Z,18.33
2023-01-15T18:01:12.497Z,17.50
2023-01-15T18:04:11.301Z,17.02
2023-01-15T18:06:40.131Z,17.88
2023-01-15T18:09:08.017Z,18.42
2023-01-15T18:11:34.916Z,17.33
2023-01-15T18:14:01.538Z,19.20
2023-01-15T18:16:29.265Z,19.65
2023-01-15T18:18:56.182Z,18.05
2023-01-15T18:21:22.883Z,16.42
2023-01-15T18:23:50.011Z,16.50
2023-01-15T18:26:16.755Z,17.02
2023-01-15T18:28:45.272Z,18.15
2023-01-15T18:31:12.160Z,17.92
2023-01-15T18:33:38.844Z,17.05
2023-01-15T18:36:14.116Z,18.88
2023-01-15T18:38:47.454Z,18.98
2023-01-15T18:41:48.538Z,19.98
2023-01-15T18:44:36.636Z,18.15
2023-01-15T18:47:05.696Z,18.23
2023-01-15T18:49:32.419Z,17.85
2023-01-15T18:52:17.507Z,17.65
2023-01-15T18:54:44.227Z,17.23
2023-01-15T18:57:10.910Z,17.85
2023-01-15T18:59:37.753Z,17.38
2023-01-15T19:02:05.161Z,18.38
2023-01-15T19:04:31.947Z,16.80
2023-01-15T19:06:58.890Z,17.15
2023-01-15T19:09:25.646Z,17.30
2023-01-15T19:11:53.668Z,16.75
2023-01-15T19:14:39.292Z,16.13
2023-01-15T19:17:25.181Z,16.55
2023-01-15T19:19:51.791Z,16.55
2023-01-15T19:22:36.945Z,17.65
2023-01-15T19:25:03.795Z,17.02
2023-01-15T19:27:30.467Z,16.70
2023-01-15T19:29:57.132Z,16.80
2023-01-15T19:32:23.772Z,18.35
2023-01-15T19:34:50.620Z,19.83
2023-01-15T19:37:17.196Z,22.40
2023-01-15T19:39:44.096Z,23.38
2023-01-15T19:42:32.279Z,25.20
2023-01-15T19:45:17.651Z,26.98
2023-01-15T19:48:03.210Z,28.92
2023-01-15T19:50:35.186Z,35.88
2023-01-15T19:53:01.905Z,37.72
2023-01-15T19:55:30.489Z,42.58
2023-01-15T19:58:00.213Z,43.55
2023-01-15T20:00:27.783Z,48.60
2023-01-15T20:02:55.218Z,43.65
2023-01-15T20:05:22.417Z,38.72
2023-01-15T20:07:49.125Z,49.13
2023-01-15T20:10:17.667Z,46.88
2023-01-15T20:13:03.723Z,58.90
2023-01-15T20:15:31.802Z,67.95
2023-01-15T20:17:59.012Z,73.47
2023-01-15T20:20:26.655Z,33.15
2023-01-15T20:22:56.217Z,76.90
2023-01-15T20:25:23.092Z,81.05
2023-01-15T20:27:49.672Z,81.10
2023-01-15T20:30:20.077Z,82.90
2023-01-15T20:32:48.097Z,79.18
2023-01-15T20:35:18.929Z,83.55
2023-01-15T20:37:47.970Z,80.30
2023-01-15T20:40:15.914Z,83.75
2023-01-15T20:43:01.066Z,81.80
2023-01-15T20:45:28.354Z,84.95
2023-01-15T20:48:13.529Z,88.07
2023-01-15T20:51:01.087Z,85.53
2023-01-15T20:53:35.674Z,85.50
2023-01-15T20:56:04.037Z,79.70
2023-01-15T20:58:30.777Z,77.35
2023-01-15T21:01:10.050Z,74.47
2023-01-15T21:03:38.567Z,68.45
2023-01-15T21:06:06.349Z,65.43
2023-01-15T21:08:33.837Z,61.33
2023-01-15T21:11:01.250Z,62.08
2023-01-15T21:13:27.926Z,61.72
2023-01-15T21:16:04.185Z,59.72
2023-01-15T21:18:32.435Z,55.30
2023-01-15T21:20:59.163Z,51.55
2023-01-15T21:23:25.891Z,52.50
2023-01-15T21:25:59.092Z,52.92
2023-01-15T21:28:25.752Z,51.33
2023-01-15T21:30:52.404Z,48.35
2023-01-15T21:33:19.298Z,46.13
2023-01-15T21:35:45.899Z,47.17
2023-01-15T21:38:12.623Z,44.58
2023-01-15T21:40:39.565Z,48.20
2023-01-15T21:43:25.358Z,44.22
2023-01-15T21:45:52.240Z,42.33
2023-01-15T21:48:19.310Z,42.13
2023-01-15T21:50:46.154Z,41.17
2023-01-15T21:53:12.700Z,40.72
2023-01-15T21:55:39.292Z,47.38
2023-01-15T21:58:05.895Z,48.42
2023-01-15T22:00:32.543Z,51.60
2023-01-15T22:02:59.380Z,51.10
2023-01-15T22:05:25.997Z,56.00
2023-01-15T22:07:52.657Z,57.40
2023-01-15T22:10:19.404Z,56.47
2023-01-15T22:12:46.048Z,58.40
2023-01-15T22:15:12.820Z,70.78
2023-01-15T22:17:39.509Z,72.72
2023-01-15T22:20:07.319Z,71.28
2023-01-15T22:22:36.542Z,68.68
2023-01-15T22:25:05.611Z,72.07
2023-01-15T22:27:34.582Z,70.43
2023-01-15T22:30:01.579Z,63.72
2023-01-15T22:32:28.282Z,60.65
2023-01-15T22:34:54.903Z,64.25
2023-01-15T22:37:21.548Z,61.20
2023-01-15T22:39:49.450Z,60.80
2023-01-15T22:42:24.922Z,55.38
2023-01-15T22:44:52.130Z,55.22
2023-01-15T22:47:19.851Z,54.78
2023-01-15T22:49:46.525Z,54.97
2023-01-15T22:52:13.465Z,57.05
2023-01-15T22:54:41.411Z,56.38
2023-01-15T22:57:08.014Z,53.70
2023-01-15T22:59:34.639Z,54.83
2023-01-15T23:02:01.376Z,55.15
2023-01-15T23:04:28.214Z,55.08
2023-01-15T23:06:55.051Z,54.00
2023-01-15T23:09:23.735Z,53.10
2023-01-15T23:11:51.690Z,44.88
2023-01-15T23:14:20.001Z,45.47
2023-01-15T23:16:47.172Z,45.03
2023-01-15T23:19:15.012Z,45.20
2023-01-15T23:21:41.877Z,42.60
2023-01-15T23:24:09.052Z,43.30
2023-01-15T23:26:35.787Z,37.38
2023-01-15T23:29:03.253Z,37.92
2023-01-15T23:31:30.567Z,38.40
2023-01-15T23:33:57.290Z,38.17
2023-01-15T23:36:24.280Z,37.72
2023-01-15T23:38:51.180Z,39.67
2023-01-15T23:41:40.278Z,37.92
2023-01-15T23:44:38.893Z,36.17
2023-01-15T23:47:08.147Z,37.00
2023-01-15T23:49:35.396Z,37.47
2023-01-15T23:52:02.342Z,37.60
2023-01-15T23:54:31.391Z,37.92
2023-01-15T23:57:00.253Z,36.85
2023-01-15T23:59:27.349Z,35.85
